Winneconne, Wisconsin
Current Conditions -  °F | °C
As of 5:53 AM on Sunday 25 Jan 2015 (Local Time) from KOSH Reporting Station
Overcast Overcast  
Wind Chill:   Ceiling: 2200
Heat Index: 21°   Visibility: 10mi
Dew Point: 13°   Wind: 20mph
Humidity: 71%   Direction: 40°NE
Pressure: 29.85"   Gusts: 26mph
Location:  44.11°N, 88.71°W
Report Text: KOSH 251153Z 04017G23KT 10SM BKN022 OVC036 M06/M11 A2985 RMK AO2 SLP124 T10611106 11022 21061 53014
Loading
Personal Weather Stations






























Interactive Weather Map New forecast layout! Learn more

10-Day Weather Forecast

Advertisements
Track Severe Weather on mobile